createdAt,value
2022-08-24T00:01:17.180Z,4.90
2022-08-24T00:05:25.851Z,4.80
2022-08-24T00:09:34.828Z,4.47
2022-08-24T00:13:44.544Z,6.23
2022-08-24T00:17:53.225Z,4.60
2022-08-24T00:22:02.111Z,5.40
2022-08-24T00:26:11.088Z,4.77
2022-08-24T00:30:39.070Z,4.03
2022-08-24T00:34:56.141Z,5.37
2022-08-24T00:38:58.009Z,3.93
2022-08-24T00:43:09.437Z,6.60
2022-08-24T00:47:23.690Z,8.53
2022-08-24T00:51:40.986Z,5.87
2022-08-24T00:55:52.949Z,5.50
2022-08-24T01:00:05.166Z,4.70
2022-08-24T01:04:16.869Z,3.67
2022-08-24T01:08:26.210Z,4.73
2022-08-24T01:12:37.041Z,5.00
2022-08-24T01:17:04.058Z,4.10
2022-08-24T01:21:24.499Z,6.23
2022-08-24T01:25:35.653Z,4.20
2022-08-24T01:29:47.437Z,4.90
2022-08-24T01:33:57.219Z,4.67
2022-08-24T01:38:08.973Z,6.23
2022-08-24T01:42:37.108Z,6.20
2022-08-24T01:46:54.901Z,6.47
2022-08-24T01:51:03.653Z,7.08
2022-08-24T01:55:14.915Z,4.87
2022-08-24T01:59:25.433Z,4.97
2022-08-24T02:03:34.048Z,4.60
2022-08-24T02:07:43.306Z,4.50
2022-08-24T02:11:52.003Z,7.17
2022-08-24T02:16:00.954Z,4.57
2022-08-24T02:20:10.418Z,4.40
2022-08-24T02:24:19.036Z,4.70
2022-08-24T02:28:28.695Z,5.73
2022-08-24T02:32:37.373Z,7.07
2022-08-24T02:36:46.858Z,4.43
2022-08-24T02:40:56.816Z,5.97
2022-08-24T02:45:06.324Z,5.30
2022-08-24T02:49:15.008Z,4.87
2022-08-24T02:53:24.395Z,6.30
2022-08-24T02:57:33.246Z,5.17
2022-08-24T03:01:42.049Z,5.30
2022-08-24T03:05:50.636Z,5.03
2022-08-24T03:10:01.228Z,6.97
2022-08-24T03:14:10.290Z,10.50
2022-08-24T03:18:19.362Z,7.20
2022-08-24T03:22:29.692Z,6.47
2022-08-24T03:26:39.190Z,4.83
2022-08-24T03:30:49.993Z,5.03
2022-08-24T03:34:58.915Z,5.57
2022-08-24T03:39:08.460Z,5.30
2022-08-24T03:43:35.861Z,5.60
2022-08-24T03:47:45.295Z,5.47
2022-08-24T03:51:53.984Z,5.87
2022-08-24T03:56:22.015Z,6.67
2022-08-24T04:00:30.630Z,10.63
2022-08-24T04:04:58.651Z,7.73
2022-08-24T04:09:26.624Z,4.80
2022-08-24T04:13:36.878Z,5.60
2022-08-24T04:17:45.487Z,5.47
2022-08-24T04:21:56.465Z,6.27
2022-08-24T04:26:06.201Z,5.60
2022-08-24T04:30:15.322Z,6.20
2022-08-24T04:34:24.104Z,6.03
2022-08-24T04:38:32.648Z,7.25
2022-08-24T04:42:41.361Z,6.67
2022-08-24T04:46:49.953Z,5.40
2022-08-24T04:51:04.766Z,5.73
2022-08-24T04:55:13.444Z,6.80
2022-08-24T04:59:22.058Z,5.60
2022-08-24T05:03:30.649Z,6.73
2022-08-24T05:07:39.391Z,6.53
2022-08-24T05:11:49.876Z,7.93
2022-08-24T05:15:58.305Z,4.87
2022-08-24T05:20:09.144Z,5.20
2022-08-24T05:24:18.286Z,6.07
2022-08-24T05:28:26.915Z,8.15
2022-08-24T05:32:36.604Z,6.40
2022-08-24T05:36:45.570Z,7.93
2022-08-24T05:40:54.177Z,9.83
2022-08-24T05:45:03.203Z,9.70
2022-08-24T05:49:12.150Z,8.15
2022-08-24T05:53:20.901Z,7.40
2022-08-24T05:57:34.420Z,9.50
2022-08-24T06:01:45.430Z,11.83
2022-08-24T06:05:55.102Z,11.77
2022-08-24T06:10:32.794Z,12.70
2022-08-24T06:14:17.402Z,10.83
2022-08-24T06:18:26.701Z,12.10
2022-08-24T06:22:35.463Z,16.23
2022-08-24T06:27:03.267Z,17.03
2022-08-24T06:31:11.903Z,16.83
2022-08-24T06:35:20.703Z,14.17
2022-08-24T06:39:29.952Z,18.73
2022-08-24T06:43:38.735Z,17.43
2022-08-24T06:47:47.343Z,18.13
2022-08-24T06:51:56.709Z,15.40
2022-08-24T06:56:05.632Z,13.20
2022-08-24T07:00:15.318Z,14.80
2022-08-24T07:04:28.222Z,14.70
2022-08-24T07:08:37.701Z,15.50
2022-08-24T07:12:47.123Z,14.47
2022-08-24T07:16:56.557Z,12.97
2022-08-24T07:21:06.780Z,12.67
2022-08-24T07:25:15.661Z,12.17
2022-08-24T07:29:46.267Z,9.33
2022-08-24T07:33:36.054Z,10.17
2022-08-24T07:37:44.629Z,7.55
2022-08-24T07:42:18.852Z,6.97
2022-08-24T07:46:24.067Z,9.70
2022-08-24T07:50:33.134Z,6.00
2022-08-24T07:54:41.728Z,6.40
2022-08-24T07:58:50.606Z,5.03
2022-08-24T08:03:02.987Z,10.27
2022-08-24T08:07:13.576Z,6.30
2022-08-24T08:11:22.210Z,7.30
2022-08-24T08:15:31.084Z,6.97
2022-08-24T08:19:39.784Z,5.57
2022-08-24T08:24:05.922Z,11.57
2022-08-24T08:28:25.332Z,5.57
2022-08-24T08:32:25.764Z,6.63
2022-08-24T08:36:34.718Z,8.63
2022-08-24T08:40:56.440Z,9.80
2022-08-24T08:45:14.350Z,7.07
2022-08-24T08:50:00.399Z,6.37
2022-08-24T08:54:24.700Z,8.78
2022-08-24T08:59:01.622Z,7.17
2022-08-24T09:03:28.210Z,5.93
2022-08-24T09:07:48.774Z,7.03
2022-08-24T09:12:15.385Z,11.63
2022-08-24T09:16:48.442Z,8.23
2022-08-24T09:21:06.473Z,10.97
2022-08-24T09:25:37.784Z,5.50
2022-08-24T09:30:02.274Z,9.63
2022-08-24T09:34:36.778Z,6.33
2022-08-24T09:39:08.950Z,10.47
2022-08-24T09:43:29.228Z,14.17
2022-08-24T09:48:03.556Z,11.10
2022-08-24T09:52:21.475Z,10.47
2022-08-24T09:56:59.853Z,7.60
2022-08-24T10:01:26.021Z,5.87
2022-08-24T10:05:50.068Z,7.10
2022-08-24T10:10:09.354Z,5.23
2022-08-24T10:14:51.289Z,6.00
2022-08-24T10:19:30.134Z,6.27
2022-08-24T10:24:03.206Z,7.83
2022-08-24T10:33:18.183Z,7.40
2022-08-24T10:37:46.480Z,6.75
2022-08-24T10:42:18.752Z,5.40
2022-08-24T10:46:39.195Z,5.10
2022-08-24T10:51:10.080Z,7.43
2022-08-24T10:55:24.869Z,6.60
2022-08-24T10:59:46.280Z,5.73
2022-08-24T11:04:01.148Z,4.87
2022-08-24T11:08:11.960Z,5.37
2022-08-24T11:12:42.426Z,9.03
2022-08-24T11:16:55.758Z,9.60
2022-08-24T11:21:02.739Z,3.60
2022-08-24T11:25:23.427Z,4.53
2022-08-24T11:29:53.138Z,10.37
2022-08-24T11:34:17.140Z,5.20
2022-08-24T11:38:30.813Z,7.47
2022-08-24T11:42:45.230Z,6.20
2022-08-24T11:46:56.969Z,3.93
2022-08-24T11:51:31.453Z,5.17
2022-08-24T11:55:51.976Z,3.80
2022-08-24T12:00:16.146Z,5.47
2022-08-24T12:04:49.106Z,4.00
2022-08-24T12:09:06.933Z,5.90
2022-08-24T12:13:21.322Z,3.90
2022-08-24T12:17:33.686Z,3.73
2022-08-24T12:21:45.518Z,5.17
2022-08-24T12:26:33.126Z,3.20
2022-08-24T12:30:42.490Z,3.27
2022-08-24T12:35:08.932Z,3.67
2022-08-24T12:39:20.607Z,3.03
2022-08-24T12:43:38.457Z,3.57
2022-08-24T12:47:53.067Z,3.90
2022-08-24T12:52:31.495Z,3.43
2022-08-24T12:56:55.314Z,3.50
2022-08-24T13:01:06.614Z,3.17
2022-08-24T13:05:19.101Z,3.33
2022-08-24T13:09:36.580Z,4.03
2022-08-24T13:13:51.269Z,3.37
2022-08-24T13:18:11.814Z,3.87
2022-08-24T13:22:32.536Z,4.50
2022-08-24T13:26:41.159Z,4.77
2022-08-24T13:31:05.918Z,3.50
2022-08-24T13:35:37.031Z,3.53
2022-08-24T13:39:48.696Z,5.27
2022-08-24T13:44:06.196Z,4.93
2022-08-24T13:48:26.890Z,3.07
2022-08-24T13:53:07.488Z,4.13
2022-08-24T13:57:22.058Z,3.63
2022-08-24T14:01:39.733Z,5.67
2022-08-24T14:05:57.950Z,4.43
2022-08-24T14:10:13.003Z,3.93
2022-08-24T14:14:59.701Z,4.80
2022-08-24T14:19:17.238Z,5.30
2022-08-24T14:23:46.892Z,3.60
2022-08-24T14:28:01.166Z,5.10
2022-08-24T14:32:12.935Z,4.07
2022-08-24T14:36:48.274Z,6.60
2022-08-24T14:41:25.569Z,4.50
2022-08-24T14:45:52.658Z,4.00
2022-08-24T14:50:20.219Z,3.77
2022-08-24T14:54:35.859Z,4.27
2022-08-24T14:59:06.607Z,6.20
2022-08-24T15:03:30.139Z,5.03
2022-08-24T15:07:39.165Z,4.30
2022-08-24T15:11:51.253Z,3.97
2022-08-24T15:16:12.929Z,3.67
2022-08-24T15:20:40.894Z,3.70
2022-08-24T15:25:09.161Z,4.50
2022-08-24T15:29:21.482Z,4.67
2022-08-24T15:33:53.678Z,5.80
2022-08-24T15:38:22.953Z,4.07
2022-08-24T15:42:34.691Z,4.20
2022-08-24T15:46:46.910Z,5.47
2022-08-24T15:51:32.788Z,7.97
2022-08-24T15:55:47.432Z,5.17
2022-08-24T15:59:58.461Z,4.80
2022-08-24T16:04:15.749Z,5.20
2022-08-24T16:08:25.308Z,5.13
2022-08-24T16:12:34.061Z,5.40
2022-08-24T16:16:46.272Z,4.17
2022-08-24T16:20:57.943Z,4.10
2022-08-24T16:25:13.204Z,4.00
2022-08-24T16:29:41.915Z,4.07
2022-08-24T16:33:51.585Z,4.20
2022-08-24T16:38:01.388Z,3.97
2022-08-24T16:42:24.907Z,5.50
2022-08-24T16:46:33.579Z,4.00
2022-08-24T16:50:42.254Z,3.60
2022-08-24T16:54:51.735Z,4.30
2022-08-24T16:59:00.541Z,5.00
2022-08-24T17:03:12.915Z,4.87
2022-08-24T17:07:22.670Z,4.20
2022-08-24T17:11:31.273Z,4.43
2022-08-24T17:15:39.820Z,6.97
2022-08-24T17:19:51.155Z,4.10
2022-08-24T17:23:59.971Z,5.10
2022-08-24T17:28:09.229Z,3.83
2022-08-24T17:32:18.586Z,4.47
2022-08-24T17:36:32.301Z,4.53
2022-08-24T17:40:38.412Z,4.13
2022-08-24T17:44:47.051Z,4.30
2022-08-24T17:48:56.893Z,5.87
2022-08-24T17:53:05.519Z,6.03
2022-08-24T17:57:15.247Z,4.83
2022-08-24T18:01:24.496Z,4.67
2022-08-24T18:05:34.962Z,6.80
2022-08-24T18:09:48.634Z,4.00
2022-08-24T18:13:57.313Z,5.70
2022-08-24T18:18:09.123Z,4.70
2022-08-24T18:22:18.317Z,6.77
2022-08-24T18:26:29.684Z,7.00
2022-08-24T18:30:39.923Z,4.57
2022-08-24T18:34:49.607Z,4.77
2022-08-24T18:38:58.827Z,4.33
2022-08-24T18:43:08.258Z,4.40
2022-08-24T18:47:17.322Z,5.00
2022-08-24T18:51:28.128Z,4.77
2022-08-24T18:55:38.367Z,5.60
2022-08-24T18:59:47.242Z,3.90
2022-08-24T19:03:56.392Z,5.90
2022-08-24T19:08:06.504Z,4.63
2022-08-24T19:12:15.630Z,6.67
2022-08-24T19:16:24.233Z,6.57
2022-08-24T19:20:32.888Z,4.57
2022-08-24T19:24:42.227Z,5.00
2022-08-24T19:28:53.089Z,5.53
2022-08-24T19:33:02.787Z,4.70
2022-08-24T19:37:11.604Z,5.03
2022-08-24T19:41:20.675Z,5.20
2022-08-24T19:45:48.711Z,6.37
2022-08-24T19:49:57.325Z,3.40
2022-08-24T19:54:27.946Z,4.30
2022-08-24T19:58:42.613Z,4.90
2022-08-24T20:02:53.876Z,5.20
2022-08-24T20:07:02.523Z,4.90
2022-08-24T20:11:11.396Z,4.50
2022-08-24T20:15:21.659Z,5.50
2022-08-24T20:19:32.086Z,4.00
2022-08-24T20:23:40.737Z,4.93
2022-08-24T20:27:55.009Z,6.00
2022-08-24T20:32:02.010Z,4.33
2022-08-24T20:36:13.697Z,4.37
2022-08-24T20:40:26.068Z,4.03
2022-08-24T20:44:34.661Z,4.17
2022-08-24T20:48:43.495Z,5.20
2022-08-24T20:52:53.663Z,4.20
2022-08-24T20:57:04.465Z,4.40
2022-08-24T21:01:13.568Z,4.33
2022-08-24T21:05:22.668Z,5.17
2022-08-24T21:09:31.285Z,4.53
2022-08-24T21:13:39.932Z,5.20
2022-08-24T21:17:48.545Z,5.53
2022-08-24T21:21:57.149Z,4.13
2022-08-24T21:26:09.174Z,5.43
2022-08-24T21:30:21.307Z,3.93
2022-08-24T21:34:42.452Z,4.20
2022-08-24T21:38:52.422Z,4.30
2022-08-24T21:43:02.822Z,4.43
2022-08-24T21:47:14.093Z,4.07
2022-08-24T21:51:22.948Z,3.73
2022-08-24T21:55:31.536Z,6.05
2022-08-24T21:59:40.227Z,4.50
2022-08-24T22:03:49.025Z,4.57
2022-08-24T22:07:58.562Z,5.37
2022-08-24T22:12:10.345Z,4.77
2022-08-24T22:16:19.084Z,7.13
2022-08-24T22:20:27.912Z,8.00
2022-08-24T22:24:37.520Z,6.20
2022-08-24T22:28:46.127Z,5.20
2022-08-24T22:32:54.665Z,5.70
2022-08-24T22:37:05.061Z,4.70
2022-08-24T22:41:14.353Z,5.95
2022-08-24T22:45:22.957Z,5.30
2022-08-24T22:49:51.004Z,5.07
2022-08-24T22:54:00.030Z,6.25
2022-08-24T22:58:08.633Z,5.27
2022-08-24T23:02:36.648Z,6.05
2022-08-24T23:06:45.253Z,6.90
2022-08-24T23:10:54.898Z,4.50
2022-08-24T23:15:05.547Z,8.70
2022-08-24T23:19:33.142Z,6.83
2022-08-24T23:23:42.730Z,4.85
2022-08-24T23:27:51.326Z,4.80
2022-08-24T23:32:00.321Z,5.27
2022-08-24T23:36:11.689Z,5.47
2022-08-24T23:40:20.405Z,8.27
2022-08-24T23:44:30.905Z,8.97
2022-08-24T23:48:41.539Z,5.50
2022-08-24T23:52:50.130Z,7.43
2022-08-24T23:56:58.849Z,5.20
